Flight ASX323X

  • Submitted By: Rafal Piotrowski
  • Departure Airport: Praga (LKPR)
  • Arrival Airport: Bydgoszcz (EPBY)
  • Aircraft: A320-214 (SP-GSA)
  • Flight Time: 01.45.27
  • Date Submitted: 04/05/2017
  • Route: ARTUP P733 GODMA/N0415F300 P733 IRLUN
  • Status: Accepted
Flight Details
Gross Revenue:
(137 load / € 100.00 per unit
€ 13,700.00
Fuel Cost:
(3200 fuel used @ 0.45 / unit)
€ 1,440.00

Additional Log Information:

View Log

[23:10] - Airbus A320 Sioux SP-GSA
[23:10] - Flight ASX323X is ready to depart LKPR with a final destination of EPGD.
[23:10] - Parking Brake Applied
[23:10] - Beacon Light ON
[23:10] - Boarding
[23:10] - ADF1 - 284.0
[23:10] - ADF2 - 240.0
[23:10] - NAV1 - 113.70
[23:10] - NAV2 - 110.60
[23:10] - COM1 - 128.30
[23:10] - COM2 - 127.80
[23:10] - Transponder - 1200
[23:15] - Cabin Lights ON 13AGL
[23:15] - Navigation Lights ON 13AGL
[23:15] - Logo Lights ON 13AGL
[23:15] - Cabin Lights OFF 13AGL
[23:15] - Cabin Lights ON 13AGL
[23:16] - Instrument Lights ON 13AGL
[23:16] - Cabin Lights OFF 13AGL
[23:20] - NAV2 - 112.60
[23:24] - NAV1 - 109.10
[23:27] - Transponder - 2000
[23:28] - COM1 - 122.80
[23:34] - Parking Brake Released
[23:34] - Engine 2 Started
[23:34] - Parking Brake Applied
[23:34] - Parking Brake Released
[23:35] - Parking Brake Applied
[23:35] - Parking Brake Released
[23:36] - Pushing Back from the gate
[23:36] - Engine 1 Started
[23:37] - Flaps to position 2
[23:38] - Parking Brake Applied
[23:39] - Taxi Lights ON 13AGL
[23:39] - Parking Brake Released
[23:41] - Taxiing to Runway
[23:46] - Landing Lights ON 13AGL
[23:46] - Wing Lights ON 13AGL
[23:47] - Taking Off with 137 passengers on board
[23:47] - Take off at 157kts, with a pitch of 8deg and 6247kgs of fuel on board
[23:47] - Wind Heading 280 | Wind Speed 6kts | Temperature 7 deg C
[23:47] - METAR Departure: LKPR 042130Z 33005KT 280V360 CAVOK 07/05 Q1023 NOSIG

[23:47] - Strobe Lights ON 19AGL
[23:47] - Taxi Lights OFF 344AGL
[23:47] - Climbing to TOC
[23:48] - Gear up at 1312AGL
[23:48] - Flaps to position 0 at 3940ft and 217kts
[23:51] - Landing Lights OFF 9652AGL
[23:55] - NAV2 - 112.25
[23:59] - NAV2 - 114.85
[00:01] - TOC reached
[00:01] - Cruise started
[00:07] - NAV2 - 110.65
[00:10] - NAV2 - 114.50
[00:16] - NAV2 - 115.80
[00:20] - NAV2 - 112.70
[00:24] - TOD reached
[00:24] - Descending to destination
[00:24] - Spoilers ON 29718ft, hdg 27 and 305kts
[00:26] - Spoilers OFF 24127ft, hdg 31 and 276kts
[00:28] - NAV2 - 114.60
[00:32] - Spoilers ON 13714ft, hdg 253 and 264kts
[00:33] - Spoilers OFF 13350ft, hdg 255 and 249kts
[00:34] - NAV2 - 112.70
[00:34] - Landing Lights ON 10170AGL
[00:37] - Landing Shortly
[00:39] - Flaps to position 1 at 3497ft and 202kts
[00:40] - Flaps to position 3 at 3182ft and 187kts
[00:40] - Flaps to position 4 at 3045ft and 178kts
[00:40] - Gear down at 2585AGL
[00:41] - Flaps to position 5 at 2500ft and 163kts
[00:47] - Landed at -392fpm. With 3411kgs of fuel onboard and a pitch angle of 6deg.
[00:47] - Wind Heading 60 | Wind Speed 4kts | Temperature 11 deg C
[00:47] - Spoilers ON 16ft, hdg 256 and 132kts
[00:47] - METAR Arrival: EPGD 042230Z VRB01KT 0150 R29/0550D FG BKN000 03/03 Q1023

[00:47] - Taxiing to Gate
[00:48] - Flaps to position 4
[00:48] - Flaps to position 2
[00:48] - Flaps to position 0
[00:48] - Taxi Lights ON 16AGL
[00:48] - Landing Lights OFF 16AGL
[00:48] - Strobe Lights OFF 16AGL
[00:49] - Spoilers OFF 16ft, hdg 168 and 0kts
[00:54] - Parking Brake Applied
[00:54] - Arrived safely at EPGD. We hope you enjoyed your flight!
[00:54] - Engine 2 Stopped
[00:54] - Engine 1 Stopped
[00:54] - Taxi Lights OFF 16AGL
[00:55] - Airbus A320 Sioux SP-GSA
[00:55] - MaxSim Rate: 1x
[00:55] - SiouxAcars ver: 1.0.1.2

Comments

Commenter Comment
Rafal Piotrowski Divert to EPBY , EPGD 042200Z 22001KT 0100 R29/0400N FG VV000 04/03 Q1023

Route Map